createdAt,value
2022-09-24T00:00:05.530Z,25.00
2022-09-24T00:02:34.895Z,25.00
2022-09-24T00:05:04.149Z,25.00
2022-09-24T00:07:33.365Z,25.00
2022-09-24T00:10:04.093Z,25.00
2022-09-24T00:12:33.546Z,25.00
2022-09-24T00:15:02.797Z,25.00
2022-09-24T00:17:32.001Z,25.00
2022-09-24T00:20:01.205Z,24.90
2022-09-24T00:22:30.458Z,24.90
2022-09-24T00:25:19.276Z,25.00
2022-09-24T00:27:48.517Z,24.90
2022-09-24T00:30:17.822Z,24.90
2022-09-24T00:32:47.029Z,24.90
2022-09-24T00:35:16.432Z,24.90
2022-09-24T00:37:45.964Z,25.00
2022-09-24T00:40:17.179Z,25.00
2022-09-24T00:42:46.420Z,25.00
2022-09-24T00:45:15.651Z,25.00
2022-09-24T00:47:46.289Z,25.00
2022-09-24T00:50:21.071Z,25.00
2022-09-24T00:52:59.040Z,25.00
2022-09-24T00:55:29.570Z,25.10
2022-09-24T00:58:02.074Z,25.00
2022-09-24T01:00:32.840Z,25.10
2022-09-24T01:03:07.799Z,25.10
2022-09-24T01:05:39.417Z,25.10
2022-09-24T01:08:16.456Z,25.10
2022-09-24T01:10:58.032Z,25.20
2022-09-24T01:13:34.959Z,25.20
2022-09-24T01:16:09.551Z,25.30
2022-09-24T01:18:51.074Z,25.30
2022-09-24T01:21:34.128Z,25.30
2022-09-24T01:24:22.560Z,25.30
2022-09-24T01:27:27.384Z,25.30
2022-09-24T01:30:08.047Z,25.40
2022-09-24T01:32:52.842Z,25.40
2022-09-24T01:35:24.056Z,25.40
2022-09-24T01:38:04.898Z,25.50
2022-09-24T01:40:35.143Z,25.50
2022-09-24T01:43:07.299Z,25.40
2022-09-24T01:45:40.017Z,25.50
2022-09-24T01:48:10.149Z,25.50
2022-09-24T01:50:52.429Z,25.50
2022-09-24T01:53:24.548Z,25.50
2022-09-24T01:56:02.317Z,25.50
2022-09-24T01:58:42.390Z,25.50
2022-09-24T02:01:17.968Z,25.50
2022-09-24T02:03:53.265Z,25.50
2022-09-24T02:06:32.087Z,25.50
2022-09-24T02:09:01.756Z,25.60
2022-09-24T02:11:32.770Z,25.50
2022-09-24T02:14:07.640Z,25.50
2022-09-24T07:05:05.499Z,27.70
2022-09-24T07:07:35.174Z,27.70
2022-09-24T07:10:08.056Z,27.70
2022-09-24T07:12:38.163Z,27.80
2022-09-24T07:15:07.968Z,27.80
2022-09-24T07:17:37.277Z,27.80
2022-09-24T07:20:07.522Z,27.90
2022-09-24T07:22:42.012Z,27.90
2022-09-24T07:25:13.422Z,28.00
2022-09-24T07:27:42.590Z,28.00
2022-09-24T07:30:12.549Z,28.10
2022-09-24T07:32:41.892Z,28.20
2022-09-24T07:35:11.298Z,28.20
2022-09-24T07:37:40.575Z,28.20
2022-09-24T07:40:10.522Z,28.30
2022-09-24T07:42:40.597Z,28.30
2022-09-24T07:45:10.489Z,28.40
2022-09-24T07:47:40.944Z,28.40
2022-09-24T07:50:10.432Z,28.50
2022-09-24T07:52:39.668Z,28.50
2022-09-24T07:55:09.651Z,28.50
2022-09-24T07:57:38.905Z,28.50
2022-09-24T08:00:08.870Z,28.50
2022-09-24T08:02:38.229Z,28.50
2022-09-24T08:05:08.321Z,28.50
2022-09-24T08:07:37.633Z,28.50
2022-09-24T08:10:07.631Z,28.40
2022-09-24T08:12:36.857Z,28.40
2022-09-24T08:15:06.303Z,28.40
2022-09-24T08:17:35.924Z,28.40
2022-09-24T08:20:05.739Z,28.40
2022-09-24T08:22:35.814Z,28.30
2022-09-24T08:25:05.846Z,28.40
2022-09-24T08:27:37.668Z,28.40
2022-09-24T08:30:08.468Z,28.40
2022-09-24T08:32:37.727Z,28.40
2022-09-24T08:35:09.657Z,28.30
2022-09-24T08:37:39.230Z,28.30
2022-09-24T08:40:09.185Z,28.30
2022-09-24T08:42:58.516Z,28.30
2022-09-24T08:45:47.367Z,28.30
2022-09-24T08:48:22.634Z,28.30
2022-09-24T08:51:02.204Z,28.30
2022-09-24T08:53:47.547Z,28.30
2022-09-24T08:56:20.676Z,28.30
2022-09-24T08:59:10.046Z,28.30
2022-09-24T09:02:01.907Z,28.30
2022-09-24T09:04:40.772Z,28.30
2022-09-24T09:07:10.942Z,28.40
2022-09-24T09:09:48.087Z,28.40
2022-09-24T09:12:25.168Z,28.40
2022-09-24T09:15:08.677Z,28.40
2022-09-24T09:17:57.945Z,28.40
2022-09-24T09:20:44.989Z,28.40
2022-09-24T09:23:17.568Z,28.40
2022-09-24T09:25:57.787Z,28.40
2022-09-24T09:28:29.031Z,28.40
2022-09-24T09:31:21.967Z,28.40
2022-09-24T09:33:56.271Z,28.40
2022-09-24T09:36:37.501Z,28.40
2022-09-24T09:39:24.360Z,28.40
2022-09-24T09:42:23.337Z,28.40
2022-09-24T09:44:52.856Z,28.40
2022-09-24T09:47:49.551Z,28.40
2022-09-24T09:50:29.711Z,28.40
2022-09-24T09:52:59.016Z,28.40
2022-09-24T09:55:32.589Z,28.40
2022-09-24T09:58:21.255Z,28.40
2022-09-24T10:00:51.175Z,28.40
2022-09-24T10:03:32.464Z,28.30
2022-09-24T10:06:04.993Z,28.30
2022-09-24T10:08:35.090Z,28.30
2022-09-24T10:11:05.502Z,28.30
2022-09-24T10:13:35.298Z,28.20
2022-09-24T10:16:10.272Z,28.20
2022-09-24T10:18:45.704Z,28.10
2022-09-24T10:21:37.429Z,28.20
2022-09-24T10:24:14.100Z,28.10
2022-09-24T10:26:45.719Z,28.10
2022-09-24T10:29:40.365Z,28.10
2022-09-24T10:32:17.919Z,28.00
2022-09-24T10:35:01.925Z,28.00
2022-09-24T10:37:31.913Z,28.00
2022-09-24T10:40:05.500Z,28.00
2022-09-24T10:42:34.807Z,27.90
2022-09-24T10:45:06.036Z,27.90
2022-09-24T10:47:56.261Z,27.90
2022-09-24T10:50:40.911Z,27.90
2022-09-24T10:53:16.684Z,27.90
2022-09-24T10:55:59.542Z,27.90
2022-09-24T10:58:54.655Z,27.80
2022-09-24T11:01:29.930Z,27.80
2022-09-24T11:04:01.696Z,27.80
2022-09-24T11:06:43.448Z,27.70
2022-09-24T11:09:38.313Z,27.70
2022-09-24T11:12:46.637Z,27.70
2022-09-24T11:15:35.962Z,27.70
2022-09-24T11:18:33.428Z,27.70
2022-09-24T11:21:41.808Z,27.60
2022-09-24T11:24:26.145Z,27.60
2022-09-24T11:27:16.410Z,27.60
2022-09-24T11:29:53.990Z,27.50
2022-09-24T11:32:58.841Z,27.50
2022-09-24T11:35:42.785Z,27.50
2022-09-24T11:38:21.415Z,27.40
2022-09-24T11:40:59.791Z,27.10
2022-09-24T11:43:57.224Z,27.00
2022-09-24T11:46:48.687Z,26.80
2022-09-24T11:49:54.524Z,26.70
2022-09-24T11:52:32.185Z,26.50
2022-09-24T11:55:19.402Z,26.20
2022-09-24T11:58:01.977Z,26.00
2022-09-24T12:00:41.953Z,25.70
2022-09-24T12:03:38.052Z,25.60
2022-09-24T12:06:16.918Z,25.50
2022-09-24T12:09:02.905Z,25.40
2022-09-24T12:11:34.444Z,25.40
2022-09-24T12:14:23.890Z,25.30
2022-09-24T12:16:58.721Z,25.30
2022-09-24T12:19:33.338Z,25.30
2022-09-24T12:22:05.520Z,25.20
2022-09-24T12:24:40.864Z,25.20
2022-09-24T12:27:19.277Z,25.10
2022-09-24T12:30:24.932Z,25.10
2022-09-24T12:33:02.271Z,25.00
2022-09-24T12:35:36.138Z,24.90
2022-09-24T12:38:09.609Z,24.80
2022-09-24T12:41:18.066Z,24.80
2022-09-24T12:44:08.928Z,24.70
2022-09-24T12:46:42.669Z,24.70
2022-09-24T12:49:21.557Z,24.70
2022-09-24T12:51:50.856Z,24.80
2022-09-24T12:54:23.207Z,24.70
2022-09-24T12:56:53.039Z,24.70
2022-09-24T12:59:30.976Z,24.70
2022-09-24T13:02:19.553Z,24.70
2022-09-24T13:05:18.904Z,24.70
2022-09-24T13:07:59.075Z,24.60
2022-09-24T13:10:36.611Z,24.60
2022-09-24T13:13:25.307Z,24.60
2022-09-24T13:16:05.408Z,24.60
2022-09-24T13:18:37.936Z,24.60
2022-09-24T13:21:20.041Z,24.60
2022-09-24T13:23:51.108Z,24.70
2022-09-24T13:26:29.062Z,24.70
2022-09-24T13:29:04.907Z,24.70
2022-09-24T13:31:39.353Z,24.70
2022-09-24T13:34:20.455Z,24.80
2022-09-24T13:37:02.571Z,24.80
2022-09-24T13:39:53.618Z,24.80
2022-09-24T13:42:37.040Z,24.80
2022-09-24T13:45:12.976Z,24.80
2022-09-24T13:47:54.365Z,24.70
2022-09-24T13:50:27.844Z,24.70
2022-09-24T13:53:06.248Z,24.70
2022-09-24T13:55:55.263Z,24.70
2022-09-24T13:58:35.524Z,24.70
2022-09-24T14:01:12.559Z,24.70
2022-09-24T14:03:43.456Z,24.80
2022-09-24T14:06:15.520Z,24.80
2022-09-24T14:08:48.724Z,24.80
2022-09-24T14:11:22.394Z,24.90
2022-09-24T14:13:52.759Z,24.90
2022-09-24T14:16:24.767Z,24.90
2022-09-24T14:19:15.198Z,25.00
2022-09-24T14:21:51.880Z,25.00
2022-09-24T14:24:45.202Z,25.00
2022-09-24T14:27:17.117Z,25.00
2022-09-24T14:29:52.723Z,25.10
2022-09-24T14:32:24.973Z,25.10
2022-09-24T14:34:57.582Z,25.10
2022-09-24T14:37:37.575Z,25.20
2022-09-24T14:40:16.973Z,25.10
2022-09-24T14:42:50.365Z,25.10
2022-09-24T14:45:35.813Z,25.10
2022-09-24T14:48:18.906Z,25.10
2022-09-24T14:50:49.025Z,25.10
2022-09-24T14:53:23.737Z,25.10
2022-09-24T14:55:53.721Z,25.10
2022-09-24T14:58:33.067Z,25.10
2022-09-24T15:01:08.523Z,25.10
2022-09-24T15:03:44.660Z,25.10
2022-09-24T15:06:25.878Z,25.00
2022-09-24T15:09:02.053Z,25.00
2022-09-24T15:11:35.814Z,25.00
2022-09-24T15:14:17.105Z,25.00
2022-09-24T15:16:48.556Z,24.90
2022-09-24T15:19:22.495Z,24.90
2022-09-24T15:21:54.436Z,24.90
2022-09-24T15:24:23.946Z,24.90
2022-09-24T15:27:17.653Z,24.90
2022-09-24T15:29:46.844Z,24.90
2022-09-24T15:32:19.367Z,24.90
2022-09-24T15:34:49.526Z,24.90
2022-09-24T15:37:22.745Z,24.90
2022-09-24T15:39:53.567Z,24.90
2022-09-24T15:42:24.818Z,24.90
2022-09-24T15:44:56.097Z,24.80
2022-09-24T15:47:25.437Z,24.80
2022-09-24T15:49:54.624Z,24.90
2022-09-24T15:52:30.552Z,24.80
2022-09-24T15:55:03.105Z,24.90
2022-09-24T15:57:32.289Z,24.90
2022-09-24T16:00:01.597Z,24.90
2022-09-24T16:02:34.056Z,25.00
2022-09-24T16:05:04.336Z,25.00
2022-09-24T16:07:33.724Z,25.00
2022-09-24T16:10:02.909Z,25.00
2022-09-24T16:12:32.201Z,25.00
2022-09-24T16:15:02.145Z,25.00
2022-09-24T16:17:31.816Z,25.10
2022-09-24T16:20:01.214Z,25.10
2022-09-24T16:22:30.404Z,25.10
2022-09-24T16:24:59.701Z,25.10
2022-09-24T16:27:28.888Z,25.00
2022-09-24T16:29:58.140Z,25.10
2022-09-24T16:32:27.510Z,25.10
2022-09-24T16:34:58.228Z,25.10
2022-09-24T16:37:27.889Z,25.10
2022-09-24T16:39:57.444Z,25.00
2022-09-24T16:42:27.696Z,25.00
2022-09-24T16:44:56.960Z,25.00
2022-09-24T16:47:26.461Z,25.00
2022-09-24T16:49:55.689Z,25.00
2022-09-24T16:52:25.014Z,25.00
2022-09-24T16:54:54.203Z,25.00
2022-09-24T16:57:23.457Z,25.00
2022-09-24T17:03:57.937Z,25.10
2022-09-24T17:06:29.649Z,25.10
2022-09-24T17:09:18.754Z,25.10
2022-09-24T17:11:49.862Z,25.00
2022-09-24T17:14:21.017Z,25.00
2022-09-24T17:16:50.266Z,25.00
2022-09-24T17:19:19.424Z,25.00
2022-09-24T17:21:51.568Z,24.90
2022-09-24T17:24:22.008Z,24.90
2022-09-24T17:26:51.819Z,24.90
2022-09-24T17:29:25.585Z,24.90
2022-09-24T17:31:58.213Z,24.80
2022-09-24T17:34:27.542Z,24.90
2022-09-24T17:36:56.811Z,24.90
2022-09-24T17:39:26.215Z,24.90
2022-09-24T17:41:55.451Z,24.90
2022-09-24T17:44:24.829Z,24.90
2022-09-24T17:46:54.186Z,25.00
2022-09-24T17:49:23.551Z,25.00
2022-09-24T17:51:52.686Z,25.00
2022-09-24T17:54:24.690Z,25.00
2022-09-24T17:56:53.871Z,25.10
2022-09-24T17:59:26.437Z,25.10
2022-09-24T18:01:56.455Z,25.10
2022-09-24T18:04:28.397Z,25.10
2022-09-24T18:06:57.611Z,25.00
2022-09-24T18:09:26.816Z,25.00
2022-09-24T18:11:58.363Z,25.00
2022-09-24T18:14:27.827Z,25.10
2022-09-24T18:16:57.129Z,25.10
2022-09-24T18:19:26.436Z,25.10
2022-09-24T18:21:57.552Z,25.10
2022-09-24T18:24:26.817Z,25.10
2022-09-24T18:26:56.009Z,25.10
2022-09-24T18:29:25.837Z,25.00
2022-09-24T18:31:55.005Z,25.00
2022-09-24T18:34:24.226Z,25.00
2022-09-24T18:36:53.417Z,25.00
2022-09-24T18:39:25.549Z,25.00
2022-09-24T18:41:55.110Z,25.00
2022-09-24T18:44:24.336Z,25.00
2022-09-24T18:46:53.661Z,25.00
2022-09-24T18:49:23.035Z,25.00
2022-09-24T18:51:53.412Z,25.00
2022-09-24T18:54:22.566Z,25.00
2022-09-24T18:56:51.956Z,25.00
2022-09-24T18:59:22.217Z,25.00
2022-09-24T19:01:52.450Z,25.00
2022-09-24T19:04:21.677Z,25.10
2022-09-24T19:06:52.019Z,25.10
2022-09-24T19:09:21.970Z,25.10
2022-09-24T19:11:51.432Z,25.00
2022-09-24T19:14:20.799Z,25.10
2022-09-24T19:16:50.897Z,25.10
2022-09-24T19:19:20.052Z,25.10
2022-09-24T19:21:49.242Z,25.10
2022-09-24T19:24:19.627Z,25.10
2022-09-24T19:26:48.897Z,25.10
2022-09-24T19:29:18.238Z,25.10
2022-09-24T19:31:50.133Z,25.20
2022-09-24T19:34:19.404Z,25.10
2022-09-24T19:36:48.545Z,25.20
2022-09-24T19:39:19.782Z,25.10
2022-09-24T19:41:49.025Z,25.20
2022-09-24T19:44:18.314Z,25.20
2022-09-24T19:46:48.154Z,25.20
2022-09-24T19:49:17.553Z,25.20
2022-09-24T19:51:46.708Z,25.20
2022-09-24T19:54:15.864Z,25.10
2022-09-24T19:56:45.084Z,25.10
2022-09-24T19:59:15.117Z,25.20
2022-09-24T20:01:44.527Z,25.10
2022-09-24T20:04:15.438Z,25.20
2022-09-24T20:06:44.687Z,25.20
2022-09-24T20:09:13.945Z,25.20
2022-09-24T20:11:43.479Z,25.20
2022-09-24T20:14:14.721Z,25.20
2022-09-24T20:16:45.945Z,25.20
2022-09-24T20:19:16.249Z,25.10
2022-09-24T20:21:45.529Z,25.10
2022-09-24T20:24:15.306Z,25.20
2022-09-24T20:27:04.180Z,25.10
2022-09-24T20:29:33.400Z,25.10
2022-09-24T20:32:02.808Z,25.10
2022-09-24T20:34:37.090Z,25.10
2022-09-24T20:37:07.503Z,25.10
2022-09-24T20:39:36.720Z,25.10
2022-09-24T20:42:07.251Z,25.10
2022-09-24T20:44:36.909Z,25.10
2022-09-24T20:47:06.167Z,25.00
2022-09-24T20:49:35.653Z,25.00
2022-09-24T20:52:07.073Z,25.00
2022-09-24T20:54:36.795Z,25.00
2022-09-24T20:57:06.040Z,25.00
2022-09-24T20:59:35.330Z,25.00
2022-09-24T21:02:04.693Z,24.90
2022-09-24T21:04:36.731Z,24.90
2022-09-24T21:07:05.910Z,24.90
2022-09-24T21:09:35.275Z,24.90
2022-09-24T21:12:04.974Z,24.90
2022-09-24T21:14:36.918Z,24.90
2022-09-24T21:17:06.158Z,24.90
2022-09-24T21:19:37.065Z,24.90
2022-09-24T21:22:07.459Z,24.80
2022-09-24T21:24:36.694Z,24.80
2022-09-24T21:27:06.631Z,24.80
2022-09-24T21:29:35.805Z,24.80
2022-09-24T21:32:05.042Z,24.80
2022-09-24T21:34:34.189Z,24.80
2022-09-24T21:37:03.406Z,24.80
2022-09-24T21:39:32.583Z,24.80
2022-09-24T21:42:01.851Z,24.80
2022-09-24T21:44:35.465Z,24.80
2022-09-24T21:47:05.135Z,24.80
2022-09-24T21:49:37.931Z,24.80
2022-09-24T21:52:07.350Z,24.80
2022-09-24T21:54:37.416Z,24.80
2022-09-24T21:57:06.720Z,24.80
2022-09-24T21:59:58.348Z,24.70
2022-09-24T22:02:27.662Z,24.70
2022-09-24T22:04:56.983Z,24.70
2022-09-24T22:07:26.241Z,24.70
2022-09-24T22:09:55.437Z,24.70
2022-09-24T22:12:24.971Z,24.70
2022-09-24T22:14:54.110Z,24.70
2022-09-24T22:17:23.263Z,24.70
2022-09-24T22:19:52.494Z,24.70
2022-09-24T22:22:22.504Z,24.70
2022-09-24T22:24:51.708Z,24.70
2022-09-24T22:27:21.004Z,24.70
2022-09-24T22:29:50.232Z,24.70
2022-09-24T22:32:19.404Z,24.70
2022-09-24T22:35:08.194Z,24.70
2022-09-24T22:37:39.486Z,24.70
2022-09-24T22:40:10.204Z,24.70
2022-09-24T22:42:39.443Z,24.70
2022-09-24T22:45:09.426Z,24.70
2022-09-24T22:47:38.695Z,24.70
2022-09-24T22:50:08.285Z,24.70
2022-09-24T22:52:39.241Z,24.70
2022-09-24T22:55:09.047Z,24.70
2022-09-24T22:57:38.225Z,24.60
2022-09-24T23:00:08.331Z,24.60
2022-09-24T23:02:37.870Z,24.60
2022-09-24T23:05:08.851Z,24.60
2022-09-24T23:07:38.094Z,24.70
2022-09-24T23:10:07.992Z,24.70
2022-09-24T23:12:37.430Z,24.70
2022-09-24T23:15:07.194Z,24.70
2022-09-24T23:17:39.311Z,24.70
2022-09-24T23:20:10.128Z,24.70
2022-09-24T23:22:39.353Z,24.70
2022-09-24T23:25:09.567Z,24.70
2022-09-24T23:27:38.712Z,24.70
2022-09-24T23:30:08.503Z,24.70
2022-09-24T23:32:37.752Z,24.70
2022-09-24T23:35:07.283Z,24.70
2022-09-24T23:37:37.589Z,24.70
2022-09-24T23:40:07.406Z,24.70
2022-09-24T23:42:36.766Z,24.70
2022-09-24T23:45:06.173Z,24.70
2022-09-24T23:47:36.335Z,24.60
2022-09-24T23:50:05.904Z,24.60
2022-09-24T23:52:35.004Z,24.60
2022-09-24T23:55:04.182Z,24.60
2022-09-24T23:57:33.472Z,24.60
